createdAt,value
2019-05-23T00:01:12.362Z,13.17
2019-05-23T00:03:59.028Z,13.30
2019-05-23T00:06:29.715Z,13.40
2019-05-23T00:09:00.904Z,14.20
2019-05-23T00:11:55.501Z,13.30
2019-05-23T00:14:34.161Z,14.03
2019-05-23T00:17:04.168Z,13.58
2019-05-23T00:19:34.201Z,14.40
2019-05-23T00:22:06.305Z,14.27
2019-05-23T00:24:37.495Z,13.00
2019-05-23T00:27:10.112Z,13.43
2019-05-23T00:29:40.782Z,13.40
2019-05-23T00:32:21.020Z,13.90
2019-05-23T00:34:51.390Z,14.60
2019-05-23T00:37:23.018Z,13.93
2019-05-23T00:39:53.454Z,13.90
2019-05-23T00:42:23.121Z,14.20
2019-05-23T00:44:53.956Z,13.68
2019-05-23T00:47:23.658Z,14.75
2019-05-23T00:49:53.317Z,15.70
2019-05-23T00:52:23.193Z,15.83
2019-05-23T00:54:52.925Z,15.05
2019-05-23T00:57:22.458Z,15.65
2019-05-23T00:59:52.850Z,15.88
2019-05-23T01:02:26.115Z,16.42
2019-05-23T01:04:56.158Z,15.63
2019-05-23T01:07:25.875Z,15.80
2019-05-23T01:09:55.366Z,15.53
2019-05-23T01:12:24.890Z,13.95
2019-05-23T01:14:55.531Z,14.05
2019-05-23T01:17:27.152Z,14.90
2019-05-23T01:19:58.031Z,14.85
2019-05-23T01:22:28.459Z,13.75
2019-05-23T01:24:58.250Z,14.65
2019-05-23T01:27:27.916Z,13.30
2019-05-23T01:29:58.975Z,13.00
2019-05-23T01:32:44.815Z,14.33
2019-05-23T02:33:15.374Z,16.87
2019-05-23T02:35:44.698Z,18.35
2019-05-23T02:38:36.293Z,17.23
2019-05-23T02:41:26.469Z,17.85
2019-05-23T02:44:01.620Z,17.67
2019-05-23T02:46:38.192Z,16.77
2019-05-23T02:49:11.295Z,16.12
2019-05-23T02:51:42.009Z,17.23
2019-05-23T02:54:13.928Z,16.75
2019-05-23T02:56:44.924Z,15.48
2019-05-23T02:59:52.976Z,16.90
2019-05-23T03:02:58.933Z,16.02
2019-05-23T03:05:29.224Z,16.55
2019-05-23T03:08:00.630Z,17.25
2019-05-23T03:10:49.948Z,17.25
2019-05-23T03:13:21.037Z,16.35
2019-05-23T03:15:51.672Z,17.12
2019-05-23T03:18:23.409Z,16.42
2019-05-23T03:20:53.006Z,15.55
2019-05-23T03:23:22.951Z,16.95
2019-05-23T03:26:30.108Z,16.30
2019-05-23T03:29:00.011Z,16.42
2019-05-23T03:31:37.650Z,15.20
2019-05-23T03:34:09.683Z,17.30
2019-05-23T03:36:39.511Z,17.45
2019-05-23T03:39:12.736Z,16.87
2019-05-23T03:41:45.641Z,15.50
2019-05-23T03:44:15.295Z,16.65
2019-05-23T03:46:47.419Z,14.70
2019-05-23T03:49:19.781Z,15.80
2019-05-23T03:51:49.305Z,15.55
2019-05-23T03:54:19.108Z,15.35
2019-05-23T03:56:50.370Z,16.82
2019-05-23T03:59:20.467Z,17.85
2019-05-23T04:01:52.501Z,18.25
2019-05-23T04:04:22.129Z,16.90
2019-05-23T04:06:52.739Z,17.07
2019-05-23T04:09:22.222Z,16.05
2019-05-23T04:11:52.162Z,16.42
2019-05-23T04:14:21.622Z,16.97
2019-05-23T04:16:51.195Z,15.85
2019-05-23T04:19:20.706Z,16.82
2019-05-23T04:22:17.467Z,16.37
2019-05-23T04:24:47.216Z,17.40
2019-05-23T04:27:16.943Z,16.05
2019-05-23T04:29:46.515Z,15.70
2019-05-23T04:32:16.359Z,16.12
2019-05-23T04:34:46.073Z,14.63
2019-05-23T04:37:15.676Z,13.80
2019-05-23T04:39:45.460Z,16.90
2019-05-23T04:42:14.866Z,15.40
2019-05-23T04:44:44.860Z,15.48
2019-05-23T04:47:14.729Z,15.03
2019-05-23T04:49:44.323Z,13.75
2019-05-23T04:52:14.263Z,16.65
2019-05-23T04:54:44.012Z,14.60
2019-05-23T04:57:14.598Z,13.47
2019-05-23T04:59:44.137Z,14.10
2019-05-23T05:02:25.383Z,13.50
2019-05-23T05:04:46.374Z,13.60
2019-05-23T05:07:16.166Z,12.90
2019-05-23T05:09:45.616Z,13.47
2019-05-23T05:12:16.695Z,13.90
2019-05-23T05:14:46.315Z,12.80
2019-05-23T05:17:15.881Z,13.10
2019-05-23T05:19:45.904Z,13.63
2019-05-23T05:22:15.296Z,12.97
2019-05-23T05:24:44.839Z,11.93
2019-05-23T05:27:14.462Z,13.77
2019-05-23T05:29:43.886Z,12.10
2019-05-23T05:32:15.146Z,12.87
2019-05-23T05:34:44.665Z,11.90
2019-05-23T05:37:14.174Z,12.10
2019-05-23T05:39:44.089Z,12.23
2019-05-23T05:42:14.236Z,13.33
2019-05-23T05:44:43.902Z,11.97
2019-05-23T05:47:13.887Z,11.90
2019-05-23T05:49:43.503Z,13.00
2019-05-23T05:52:13.503Z,13.30
2019-05-23T05:54:43.190Z,14.23
2019-05-23T05:57:12.872Z,14.07
2019-05-23T05:59:42.431Z,13.50
2019-05-23T06:02:14.104Z,14.63
2019-05-23T06:04:43.601Z,14.60
2019-05-23T06:07:33.638Z,14.47
2019-05-23T06:10:05.050Z,14.00
2019-05-23T06:12:34.729Z,13.47
2019-05-23T06:15:05.203Z,13.67
2019-05-23T06:17:35.377Z,14.63
2019-05-23T06:20:05.470Z,14.87
2019-05-23T06:22:34.991Z,12.87
2019-05-23T06:25:05.780Z,14.03
2019-05-23T06:27:35.895Z,15.13
2019-05-23T06:30:08.770Z,13.93
2019-05-23T06:32:38.488Z,14.40
2019-05-23T06:35:08.232Z,14.43
2019-05-23T06:37:38.221Z,14.03
2019-05-23T06:40:08.413Z,14.90
2019-05-23T06:42:38.678Z,14.60
2019-05-23T06:45:08.751Z,14.87
2019-05-23T06:47:39.685Z,14.73
2019-05-23T06:50:14.373Z,15.10
2019-05-23T06:52:44.105Z,15.47
2019-05-23T06:55:13.751Z,15.23
2019-05-23T06:57:43.372Z,14.80
2019-05-23T07:00:17.135Z,14.20
2019-05-23T07:02:47.858Z,15.20
2019-05-23T07:05:20.235Z,13.43
2019-05-23T07:07:50.191Z,14.00
2019-05-23T07:10:19.860Z,14.40
2019-05-23T07:12:49.468Z,12.97
2019-05-23T07:15:19.491Z,13.07
2019-05-23T07:17:49.025Z,12.83
2019-05-23T07:20:18.676Z,13.10
2019-05-23T07:22:48.565Z,13.53
2019-05-23T07:25:18.065Z,13.47
2019-05-23T07:27:47.787Z,14.73
2019-05-23T07:30:21.762Z,14.20
2019-05-23T07:32:51.446Z,14.13
2019-05-23T07:35:21.307Z,12.97
2019-05-23T07:37:50.724Z,13.80
2019-05-23T07:40:20.467Z,13.47
2019-05-23T07:42:50.362Z,13.47
2019-05-23T07:45:24.021Z,13.80
2019-05-23T07:47:54.056Z,13.83
2019-05-23T07:50:23.770Z,12.90
2019-05-23T07:52:55.511Z,12.97
2019-05-23T07:55:30.663Z,13.50
2019-05-23T07:58:00.267Z,13.23
2019-05-23T08:00:32.856Z,13.10
2019-05-23T08:03:05.305Z,13.60
2019-05-23T08:05:35.255Z,12.30
2019-05-23T08:08:05.691Z,11.97
2019-05-23T08:10:35.469Z,12.40
2019-05-23T08:13:05.331Z,11.30
2019-05-23T08:15:35.986Z,11.40
2019-05-23T08:18:05.854Z,12.10
2019-05-23T08:20:35.339Z,11.53
2019-05-23T08:23:04.785Z,10.47
2019-05-23T08:25:34.375Z,12.23
2019-05-23T08:28:06.405Z,10.97
2019-05-23T08:30:36.125Z,10.63
2019-05-23T08:33:06.963Z,11.23
2019-05-23T08:35:36.819Z,12.43
2019-05-23T08:38:07.518Z,10.53
2019-05-23T08:48:29.295Z,10.90
2019-05-23T08:50:58.898Z,10.93
2019-05-23T09:01:32.698Z,9.90
2019-05-23T09:04:02.935Z,10.40
2019-05-23T10:38:22.748Z,8.90
2019-05-23T10:40:52.225Z,7.90
2019-05-23T10:43:21.591Z,8.60
2019-05-23T11:26:13.948Z,7.50
2019-05-23T11:28:43.219Z,7.77
2019-05-23T11:31:13.387Z,8.03
2019-05-23T12:25:51.269Z,5.97
2019-05-23T12:28:20.963Z,6.77
2019-05-23T12:30:50.645Z,6.30
2019-05-23T12:44:02.702Z,5.00
2019-05-23T12:46:32.286Z,5.30
2019-05-23T12:49:19.548Z,5.03
2019-05-23T12:51:50.470Z,4.60
2019-05-23T12:54:20.006Z,4.80
2019-05-23T12:56:49.859Z,5.00
2019-05-23T12:59:19.885Z,4.93
2019-05-23T13:01:51.370Z,4.70
2019-05-23T13:04:22.137Z,4.73
2019-05-23T13:06:51.709Z,4.20
2019-05-23T13:09:21.176Z,4.43
2019-05-23T13:11:51.047Z,4.57
2019-05-23T13:14:21.160Z,4.67
2019-05-23T13:16:50.539Z,4.50
2019-05-23T13:19:20.853Z,5.13
2019-05-23T13:21:50.456Z,4.93
2019-05-23T13:24:19.978Z,4.27
2019-05-23T13:26:49.424Z,4.83
2019-05-23T13:29:19.020Z,5.20
2019-05-23T13:31:48.592Z,4.40
2019-05-23T13:34:18.174Z,4.47
2019-05-23T13:36:47.804Z,4.10
2019-05-23T13:39:18.109Z,4.33
2019-05-23T13:41:47.694Z,5.37
2019-05-23T13:44:32.622Z,4.83
2019-05-23T13:46:48.629Z,4.10
2019-05-23T13:49:18.216Z,3.77
2019-05-23T13:51:48.151Z,4.13
2019-05-23T13:54:18.113Z,3.70
2019-05-23T13:56:48.150Z,4.30
2019-05-23T13:59:17.960Z,4.17
2019-05-23T14:01:48.145Z,4.47
2019-05-23T14:04:17.862Z,3.80
2019-05-23T14:06:47.430Z,3.70
2019-05-23T14:09:18.078Z,3.90
2019-05-23T14:11:47.673Z,4.10
2019-05-23T14:14:17.183Z,4.00
2019-05-23T14:17:03.500Z,4.30
2019-05-23T14:19:33.070Z,3.80
2019-05-23T14:22:02.801Z,3.80
2019-05-23T14:24:50.762Z,4.73
2019-05-23T14:27:40.052Z,4.20
2019-05-23T14:30:19.619Z,3.40
2019-05-23T14:32:54.415Z,4.30
2019-05-23T14:35:28.237Z,4.00
2019-05-23T14:37:59.496Z,3.90
2019-05-23T14:40:29.241Z,3.90
2019-05-23T14:43:17.678Z,3.60
2019-05-23T14:46:08.220Z,4.10
2019-05-23T14:48:46.112Z,3.60
2019-05-23T14:51:26.047Z,3.97
2019-05-23T14:54:00.787Z,4.17
2019-05-23T14:56:31.570Z,3.60
2019-05-23T14:59:01.038Z,3.73
2019-05-23T15:01:32.554Z,4.00
2019-05-23T15:04:02.580Z,3.60
2019-05-23T15:06:32.246Z,3.37
2019-05-23T15:09:01.839Z,3.57
2019-05-23T15:11:31.250Z,3.10
2019-05-23T15:14:00.821Z,3.43
2019-05-23T15:16:30.268Z,3.67
2019-05-23T15:19:00.177Z,3.57
2019-05-23T15:21:29.759Z,3.70
2019-05-23T15:23:59.325Z,3.20
2019-05-23T15:26:28.943Z,3.50
2019-05-23T15:28:58.426Z,3.80
2019-05-23T15:31:28.074Z,3.10
2019-05-23T15:33:57.562Z,3.40
2019-05-23T15:36:27.144Z,3.40
2019-05-23T15:39:08.720Z,3.40
2019-05-23T15:41:28.597Z,3.50
2019-05-23T15:43:58.200Z,3.50
2019-05-23T15:46:27.757Z,3.30
2019-05-23T15:48:57.255Z,3.87
2019-05-23T15:51:32.548Z,3.57
2019-05-23T15:54:07.673Z,3.30
2019-05-23T15:57:05.145Z,3.53
2019-05-23T15:59:45.441Z,3.33
2019-05-23T16:02:28.491Z,3.67
2019-05-23T16:05:00.273Z,3.20
2019-05-23T16:07:30.431Z,3.73
2019-05-23T16:10:00.157Z,3.70
2019-05-23T16:12:29.621Z,3.90
2019-05-23T16:14:59.212Z,3.40
2019-05-23T16:17:29.094Z,3.23
2019-05-23T16:19:58.601Z,3.80
2019-05-23T16:22:28.159Z,3.33
2019-05-23T16:24:57.751Z,3.77
2019-05-23T16:27:27.513Z,3.30
2019-05-23T16:29:57.315Z,3.43
2019-05-23T16:32:27.214Z,3.30
2019-05-23T16:34:56.717Z,3.20
2019-05-23T16:37:26.604Z,3.77
2019-05-23T16:39:56.151Z,3.40
2019-05-23T16:42:25.920Z,3.53
2019-05-23T16:44:55.624Z,9.73
2019-05-23T16:47:25.460Z,3.50
2019-05-23T16:49:55.594Z,3.30
2019-05-23T16:52:25.122Z,3.20
2019-05-23T16:54:56.373Z,4.20
2019-05-23T16:57:46.684Z,3.20
2019-05-23T17:00:34.242Z,3.43
2019-05-23T17:03:40.981Z,3.60
2019-05-23T17:06:26.148Z,3.50
2019-05-23T17:09:07.429Z,3.40
2019-05-23T17:11:52.129Z,3.50
2019-05-23T17:14:26.676Z,3.67
2019-05-23T17:17:10.342Z,3.70
2019-05-23T17:19:44.993Z,4.27
2019-05-23T17:22:30.384Z,17.20
2019-05-23T17:25:17.568Z,6.17
2019-05-23T17:28:12.223Z,4.10
2019-05-23T17:30:47.536Z,5.40
2019-05-23T17:33:17.565Z,4.00
2019-05-23T17:35:47.121Z,3.20
2019-05-23T17:38:17.288Z,3.67
2019-05-23T17:40:46.878Z,3.70
2019-05-23T17:43:16.687Z,2.70
2019-05-23T17:45:46.412Z,3.40
2019-05-23T17:48:16.167Z,3.70
2019-05-23T17:50:45.785Z,3.57
2019-05-23T17:53:15.307Z,3.80
2019-05-23T17:55:45.817Z,3.70
2019-05-23T17:58:16.278Z,4.20
2019-05-23T18:00:47.683Z,3.80
2019-05-23T18:03:17.555Z,3.60
2019-05-23T18:05:47.533Z,3.60
2019-05-23T18:08:17.550Z,3.63
2019-05-23T18:10:48.077Z,4.27
2019-05-23T18:13:18.810Z,6.60
2019-05-23T18:15:48.871Z,7.90
2019-05-23T18:18:18.869Z,3.57
2019-05-23T18:20:48.657Z,3.73
2019-05-23T18:23:18.338Z,3.30
2019-05-23T18:25:48.109Z,3.37
2019-05-23T18:28:19.460Z,3.30
2019-05-23T18:31:13.570Z,3.00
2019-05-23T18:33:43.970Z,3.00
2019-05-23T18:36:13.553Z,2.90
2019-05-23T18:38:43.157Z,3.20
2019-05-23T18:41:12.670Z,2.90
2019-05-23T18:43:43.301Z,2.90
2019-05-23T18:46:18.463Z,3.17
2019-05-23T18:48:48.169Z,3.43
2019-05-23T18:57:10.439Z,3.20
2019-05-23T18:59:40.189Z,3.20
2019-05-23T19:02:10.224Z,3.30
2019-05-23T19:04:39.771Z,3.60
2019-05-23T19:07:11.228Z,3.73
2019-05-23T19:09:42.785Z,3.10
2019-05-23T19:12:12.553Z,3.27
2019-05-23T19:14:42.094Z,3.23
2019-05-23T19:17:11.695Z,3.20
2019-05-23T19:19:41.175Z,3.40
2019-05-23T19:22:11.109Z,3.83
2019-05-23T19:24:40.584Z,3.13
2019-05-23T19:27:14.101Z,3.47
2019-05-23T19:29:43.202Z,3.40
2019-05-23T19:32:14.568Z,3.27
2019-05-23T19:34:44.028Z,3.37
2019-05-23T19:37:14.149Z,3.50
2019-05-23T19:39:43.744Z,2.80
2019-05-23T19:42:15.073Z,3.30
2019-05-23T19:44:44.597Z,3.43
2019-05-23T19:47:14.208Z,3.27
2019-05-23T19:49:43.760Z,3.00
2019-05-23T19:52:13.901Z,3.33
2019-05-23T19:54:43.612Z,3.73
2019-05-23T19:57:13.207Z,3.30
2019-05-23T19:59:42.726Z,3.33
2019-05-23T20:02:31.256Z,4.27
2019-05-23T20:05:08.191Z,4.40
2019-05-23T20:07:37.770Z,3.50
2019-05-23T20:10:08.489Z,3.90
2019-05-23T20:12:38.416Z,3.50
2019-05-23T20:15:08.732Z,4.00
2019-05-23T20:17:38.380Z,3.60
2019-05-23T20:20:08.561Z,3.57
2019-05-23T20:22:38.279Z,4.50
2019-05-23T20:25:08.798Z,3.60
2019-05-23T20:27:38.589Z,4.00
2019-05-23T20:30:11.101Z,3.43
2019-05-23T20:32:40.674Z,3.30
2019-05-23T20:35:10.551Z,3.70
2019-05-23T20:37:41.441Z,3.40
2019-05-23T20:40:11.090Z,3.60
2019-05-23T20:42:40.674Z,3.70
2019-05-23T20:45:10.165Z,3.83
2019-05-23T20:47:39.606Z,3.33
2019-05-23T20:50:09.299Z,3.70
2019-05-23T20:52:38.803Z,3.60
2019-05-23T20:55:08.493Z,4.00
2019-05-23T20:57:38.024Z,3.80
2019-05-23T21:00:09.477Z,4.17
2019-05-23T21:02:38.967Z,3.67
2019-05-23T21:05:09.284Z,3.70
2019-05-23T21:07:38.802Z,3.87
2019-05-23T21:10:08.822Z,4.10
2019-05-23T21:12:38.329Z,4.37
2019-05-23T21:15:07.944Z,4.93
2019-05-23T21:17:37.477Z,4.30
2019-05-23T21:20:08.672Z,4.20
2019-05-23T21:22:38.158Z,4.73
2019-05-23T21:25:07.790Z,5.00
2019-05-23T21:27:37.350Z,4.80
2019-05-23T21:30:06.892Z,4.97
2019-05-23T21:32:36.397Z,4.40
2019-05-23T21:35:06.735Z,4.10
2019-05-23T21:37:36.244Z,4.80
2019-05-23T21:40:06.430Z,5.33
2019-05-23T21:42:47.489Z,4.73
2019-05-23T21:45:07.908Z,4.17
2019-05-23T21:47:37.416Z,4.43
2019-05-23T21:50:07.209Z,4.90
2019-05-23T21:52:36.729Z,5.13
2019-05-23T21:55:06.635Z,4.87
2019-05-23T21:57:36.486Z,4.67
2019-05-23T22:00:08.492Z,4.53
2019-05-23T22:02:38.018Z,5.00
2019-05-23T22:05:14.561Z,5.20
2019-05-23T22:07:44.126Z,4.63
2019-05-23T22:10:13.949Z,4.80
2019-05-23T22:12:43.493Z,4.70
2019-05-23T22:15:17.394Z,5.43
2019-05-23T22:17:47.671Z,5.30
2019-05-23T22:20:17.670Z,4.80
2019-05-23T22:22:47.702Z,5.00
2019-05-23T22:25:21.127Z,5.20
2019-05-23T22:27:50.554Z,4.90
2019-05-23T22:30:20.140Z,4.50
2019-05-23T22:32:50.674Z,5.03
2019-05-23T22:35:20.906Z,5.03
2019-05-23T22:37:50.522Z,4.80
2019-05-23T22:40:20.096Z,5.10
2019-05-23T22:42:49.704Z,5.87
2019-05-23T22:45:22.096Z,4.80
2019-05-23T22:47:51.659Z,4.77
2019-05-23T22:50:21.270Z,5.43
2019-05-23T22:52:51.130Z,5.20
2019-05-23T22:55:20.617Z,5.20
2019-05-23T22:57:50.094Z,5.07
2019-05-23T23:00:26.153Z,5.47
2019-05-23T23:02:55.823Z,5.53
2019-05-23T23:05:25.276Z,5.20
2019-05-23T23:07:55.001Z,5.17
2019-05-23T23:10:24.433Z,5.93
2019-05-23T23:12:53.869Z,5.57
2019-05-23T23:15:24.415Z,5.63
2019-05-23T23:17:54.298Z,5.77
2019-05-23T23:20:23.659Z,5.60
2019-05-23T23:22:53.129Z,6.13
2019-05-23T23:25:22.636Z,5.90
2019-05-23T23:27:52.229Z,6.23
2019-05-23T23:30:24.996Z,5.83
2019-05-23T23:32:54.403Z,5.70
2019-05-23T23:35:23.870Z,6.50
2019-05-23T23:37:53.369Z,7.50
2019-05-23T23:40:22.862Z,6.13
2019-05-23T23:42:52.357Z,6.10
2019-05-23T23:45:39.441Z,6.33
2019-05-23T23:48:26.609Z,5.90
2019-05-23T23:51:13.981Z,5.40
2019-05-23T23:54:01.213Z,5.70
2019-05-23T23:56:48.501Z,6.87
2019-05-23T23:59:17.196Z,6.97
